This is the latest recevied weather packets stored in our database for station/object JS1SZZ-13. If no packets are shown the sender has not sent any weather packets the latest 10 day(s).
| Time | Temp. | Humidity | Pressure | Rain* | Wind** | Luminosity | Snow |
|---|---|---|---|---|---|---|---|
| 1787380618 | 28.33° C | 71% | 1013 hPa | 0 mm | - | - | - |
| 1787379719 | 27.22° C | 77% | 1012.9 hPa | 0 mm | - | - | - |
| 1787378819 | 27.78° C | 71% | 1013 hPa | 0 mm | - | - | - |
| 1787377918 | 27.78° C | 71% | 1012.9 hPa | 0 mm | - | - | - |
| 1787377019 | 27.78° C | 74% | 1013 hPa | 0 mm | - | - | - |
| 1787376119 | 27.22° C | 81% | 1013.1 hPa | 0 mm | - | - | - |
| 1787375218 | 26.67° C | 82% | 1013.4 hPa | 0 mm | - | - | - |
| 1787374320 | 26.67° C | 76% | 1013.3 hPa | 0 mm | - | - | - |
| 1787373419 | 27.22° C | 69% | 1013.4 hPa | 0 mm | - | - | - |
| 1787372518 | 26.67° C | 70% | 1013.4 hPa | 0 mm | - | - | - |
| 1787371620 | 27.22° C | 66% | 1013.4 hPa | 0 mm | - | - | - |
| 1787370719 | 27.78° C | 64% | 1013.3 hPa | 0 mm | - | - | - |
| 1787369819 | 29.44° C | 63% | 1012.8 hPa | 0 mm | - | - | - |
| 1787368918 | 30° C | 63% | 1012.9 hPa | 0 mm | - | - | - |
| 1787368020 | 30.56° C | 58% | 1012.9 hPa | 0 mm | - | - | - |
| 1787367119 | 31.11° C | 60% | 1012.9 hPa | 0 mm | - | - | - |
| 1787366218 | 30.56° C | 60% | 1013 hPa | 0 mm | - | - | - |
| 1787365319 | 30° C | 59% | 1013.2 hPa | 0 mm | - | - | - |
| 1787364419 | 30° C | 55% | 1013 hPa | 0 mm | - | - | - |
| 1787363519 | 30.56° C | 56% | 1013.2 hPa | 0 mm | - | - | - |
| 1787362620 | 30.56° C | 57% | 1013.4 hPa | 0 mm | - | - | - |
| 1787361719 | 30° C | 62% | 1013.4 hPa | 0 mm | - | - | - |
| 1787360819 | 30° C | 63% | 1013.4 hPa | 0 mm | - | - | - |
| 1787359918 | 29.44° C | 70% | 1013.7 hPa | 0 mm | - | - | - |
| 1787359019 | 28.89° C | 70% | 1013.6 hPa | 0 mm | - | - | - |
* Rain latest hour (hover to see other rain measurements)
** Current wind speed in m/s (hover to see current wind gust speed)